^^
Datos históricos de la estación: Murcia-Puente Tocinos
 
Diario Informe para Julio 01, 2022 Unidades:  Métrico    Ingés   Ambas
Diario Semanal Mensual Anual
  Actual: Máxima: Mínima: Promedio:
Temperatura: 22.3 °C 23.2 °C 20.7 °C 21.6 °C
Punto de rocio: 19.5 °C 19.8 °C 18.1 °C 19 °C
Humedad: 84% 88.1% 78% 86%
Velocidad viento: 7.7km/h 8.7km/h 0km/h 5km/h
Racha viento: 11.1km/h 15.6km/h - -
VientoSSE - - ESE
Presión: 1015.2 hPa 1015.2 hPa 1011.9 hPa -
Precipitación: 0.0 mm      
 
 
Tabla de datos para Julio 01, 2022
Hora Temperatura Punto de rocio Presión Viento Velocidad viento Racha viento Humedad Intensidad lluvia(por hora) Nubes
00:04 23.2 °C 19.2 °C 1011.9 hPa NE 7.6 km/h 13.7 km/h 78% 0.0 mm
00:09 23.2 °C 19.1 °C 1012.0 hPa NE 7.6 km/h 13 km/h 78% 0.0 mm
00:14 23.1 °C 19.2 °C 1012.0 hPa NE 7.6 km/h 13 km/h 78.7% 0.0 mm
00:19 23 °C 19.2 °C 1012.0 hPa NNE 7.6 km/h 13.7 km/h 79% 0.0 mm
00:24 22.9 °C 19.1 °C 1012.0 hPa NNE 8.2 km/h 15.6 km/h 79% 0.0 mm
00:29 22.8 °C 19.1 °C 1012.0 hPa NE 8.4 km/h 14.8 km/h 79.6% 0.0 mm
00:34 22.8 °C 19.2 °C 1012.0 hPa NE 8.6 km/h 13 km/h 80% 0.0 mm
00:39 22.7 °C 19.1 °C 1012.1 hPa NE 8.7 km/h 14.8 km/h 80% 0.0 mm
00:44 22.7 °C 19.1 °C 1012.1 hPa NE 7.8 km/h 13 km/h 80% 0.0 mm
00:49 22.6 °C 19.1 °C 1012.1 hPa NE 7.6 km/h 11.1 km/h 80.5% 0.0 mm
00:54 22.6 °C 19.2 °C 1012.1 hPa NNE 6.7 km/h 13 km/h 81% 0.0 mm
00:59 22.6 °C 19.1 °C 1012.1 hPa NE 6.4 km/h 13 km/h 81% 0.0 mm
01:04 22.4 °C 19 °C 1012.1 hPa NNE 7.4 km/h 13 km/h 81.1% 0.0 mm
01:09 22.4 °C 19.2 °C 1012.1 hPa NNE 7.6 km/h 12.2 km/h 82% 0.0 mm
01:14 22.3 °C 19.1 °C 1012.1 hPa NE 7.6 km/h 13 km/h 82% 0.0 mm
01:19 22.3 °C 19.1 °C 1012.1 hPa NE 7.6 km/h 13 km/h 82% 0.0 mm
01:24 22.2 °C 19.1 °C 1012.1 hPa NE 7.6 km/h 11.1 km/h 82.7% 0.0 mm
01:29 22.2 °C 19.2 °C 1012.1 hPa NE 7.6 km/h 11.1 km/h 83% 0.0 mm
01:34 22.2 °C 19.2 °C 1012.1 hPa NE 6.7 km/h 9.3 km/h 83% 0.0 mm
01:39 22.1 °C 19.2 °C 1012.2 hPa NE 6.4 km/h 11.1 km/h 83.5% 0.0 mm
01:44 22.1 °C 19.2 °C 1012.2 hPa NE 6.8 km/h 11.9 km/h 84% 0.0 mm
01:49 21.9 °C 19.1 °C 1012.2 hPa NNE 6.9 km/h 11.1 km/h 84% 0.0 mm
01:54 21.9 °C 19.2 °C 1012.2 hPa NNE 6.9 km/h 11.1 km/h 84.6% 0.0 mm
01:59 21.9 °C 19.3 °C 1012.2 hPa NNE 6.9 km/h 9.5 km/h 85% 0.0 mm
02:04 21.8 °C 19.2 °C 1012.2 hPa NNE 5.3 km/h 11.1 km/h 85% 0.0 mm
02:09 21.8 °C 19.2 °C 1012.2 hPa NNE 5 km/h 9.3 km/h 85% 0.0 mm
02:14 21.8 °C 19.2 °C 1012.1 hPa NNE 5.6 km/h 11.1 km/h 85% 0.0 mm
02:19 21.7 °C 19.3 °C 1012.1 hPa NE 5.8 km/h 11.9 km/h 85.7% 0.0 mm
02:24 21.7 °C 19.3 °C 1012.2 hPa NE 6.7 km/h 11.1 km/h 86% 0.0 mm
02:29 21.7 °C 19.3 °C 1012.2 hPa NNE 6.9 km/h 8.4 km/h 86% 0.0 mm
02:34 21.7 °C 19.3 °C 1012.2 hPa NNE 6.5 km/h 8.4 km/h 86% 0.0 mm
02:39 21.7 °C 19.3 °C 1012.2 hPa NNE 6.4 km/h 9.5 km/h 86% 0.0 mm
02:44 21.7 °C 19.2 °C 1012.2 hPa NNE 5.3 km/h 10.3 km/h 86% 0.0 mm
02:49 21.6 °C 19.2 °C 1012.2 hPa NNE 5 km/h 11.1 km/h 86.5% 0.0 mm
02:54 21.6 °C 19.3 °C 1012.2 hPa NNE 6.2 km/h 9.5 km/h 87% 0.0 mm
02:59 21.5 °C 19.3 °C 1012.1 hPa NNE 6.4 km/h 8.4 km/h 87% 0.0 mm
03:04 21.5 °C 19.2 °C 1012.1 hPa NNE 5.9 km/h 9.3 km/h 87% 0.0 mm
03:09 21.4 °C 19.2 °C 1012.2 hPa NNE 5.8 km/h 9.3 km/h 87% 0.0 mm
03:14 21.4 °C 19.2 °C 1012.2 hPa NNE 5.8 km/h 9.5 km/h 87% 0.0 mm
03:19 21.3 °C 19.1 °C 1012.2 hPa NE 5.8 km/h 8.4 km/h 87% 0.0 mm
03:24 21.3 °C 19.2 °C 1012.3 hPa NNE 5.2 km/h 7.4 km/h 87.6% 0.0 mm
03:29 21.3 °C 19.2 °C 1012.3 hPa NNE 5 km/h 5.8 km/h 88% 0.0 mm
03:34 21.3 °C 19.2 °C 1012.3 hPa NE 4.1 km/h 7.6 km/h 88% 0.0 mm
03:39 21.3 °C 19.2 °C 1012.3 hPa NE 3.9 km/h 10 km/h 88% 0.0 mm
03:44 21.3 °C 19.2 °C 1012.3 hPa NE 4.5 km/h 9.3 km/h 88% 0.0 mm
03:49 21.3 °C 19.2 °C 1012.3 hPa NNE 4.7 km/h 10 km/h 88% 0.0 mm
03:54 21.3 °C 19.2 °C 1012.5 hPa NNE 4.7 km/h 9.5 km/h 88% 0.0 mm
03:59 21.2 °C 19.1 °C 1012.5 hPa NNE 4.7 km/h 7.4 km/h 88% 0.0 mm
04:04 21.2 °C 19.1 °C 1012.5 hPa NNE 4.7 km/h 10 km/h 88% 0.0 mm
04:09 21.2 °C 19.1 °C 1012.6 hPa NNE 4.7 km/h 9.3 km/h 88% 0.0 mm
04:14 21.2 °C 19.1 °C 1012.6 hPa NNE 5.6 km/h 9.5 km/h 88% 0.0 mm
04:19 21.1 °C 19.1 °C 1012.6 hPa NNE 5.8 km/h 9.5 km/h 88% 0.0 mm
04:24 21.1 °C 19.1 °C 1012.7 hPa North 5.2 km/h 7.4 km/h 88% 0.0 mm
04:29 21.1 °C 19.1 °C 1012.7 hPa NE 5 km/h 7.4 km/h 88% 0.0 mm
04:34 21 °C 18.8 °C 1012.7 hPa NE 4.7 km/h 9.5 km/h 87.1% 0.0 mm
04:39 20.9 °C 18.7 °C 1012.8 hPa NE 4.7 km/h 7.4 km/h 87% 0.0 mm
04:44 20.9 °C 18.7 °C 1012.8 hPa NE 4.9 km/h 7.4 km/h 87% 0.0 mm
04:49 20.9 °C 18.7 °C 1012.8 hPa NNE 5 km/h 9.3 km/h 86.9% 0.0 mm
04:54 20.8 °C 18.4 °C 1012.9 hPa NE 5 km/h 8.7 km/h 86.1% 0.0 mm
04:59 20.8 °C 18.4 °C 1012.9 hPa NE 5 km/h 9.3 km/h 86% 0.0 mm
05:04 20.8 °C 18.4 °C 1012.9 hPa ENE 5 km/h 8.7 km/h 86% 0.0 mm
05:09 20.8 °C 18.3 °C 1013.0 hPa NE 5 km/h 9.3 km/h 85.5% 0.0 mm
05:14 20.7 °C 18.1 °C 1013.0 hPa Este 4.7 km/h 7.4 km/h 85% 0.0 mm
05:19 20.8 °C 18.2 °C 1013.0 hPa Este 4.7 km/h 7.4 km/h 85% 0.0 mm
05:24 20.8 °C 18.2 °C 1013.0 hPa ENE 3.5 km/h 2.3 km/h 85% 0.0 mm
05:29 20.8 °C 18.2 °C 1013.0 hPa ENE 3.2 km/h 3.7 km/h 85% 0.0 mm
05:34 20.9 °C 18.3 °C 1013.0 hPa ENE 0.7 km/h 3.9 km/h 85% 0.0 mm
05:39 20.9 °C 18.2 °C 1013.1 hPa Calm   7.4 km/h 84.8% 0.0 mm
05:44 20.9 °C 18.1 °C 1013.1 hPa NNE 2.3 km/h 7.4 km/h 84% 0.0 mm
05:49 20.9 °C 18.2 °C 1013.1 hPa NNE 2.9 km/h 7.4 km/h 84.8% 0.0 mm
05:54 20.9 °C 18.3 °C 1013.3 hPa NNO 3.1 km/h 7.4 km/h 85% 0.0 mm
05:59 21 °C 18.4 °C 1013.3 hPa NO 3.2 km/h 7.4 km/h 85% 0.0 mm
06:04 21.1 °C 18.5 °C 1013.3 hPa NO 3.2 km/h 7.4 km/h 85% 0.0 mm
06:09 21.1 °C 18.5 °C 1013.3 hPa NNO 3.2 km/h 5.6 km/h 85.3% 0.0 mm
06:14 21.1 °C 18.7 °C 1013.3 hPa North 3.2 km/h 5.8 km/h 86% 0.0 mm
06:19 21.1 °C 18.7 °C 1013.3 hPa NNE 3.2 km/h 7.4 km/h 86% 0.0 mm
06:24 21.1 °C 18.7 °C 1013.6 hPa NE 3 km/h 7.4 km/h 86% 0.0 mm
06:29 21.1 °C 18.7 °C 1013.6 hPa NNO 2.9 km/h 7.4 km/h 86.2% 0.0 mm
06:34 21.1 °C 18.8 °C 1013.6 hPa North 3.2 km/h 5.8 km/h 87% 0.0 mm
06:39 21.1 °C 18.8 °C 1013.7 hPa NNE 3.2 km/h 7.4 km/h 87% 0.0 mm
06:44 21 °C 18.8 °C 1013.7 hPa North 3 km/h 5.8 km/h 87% 0.0 mm
06:49 21 °C 18.8 °C 1013.7 hPa North 2.9 km/h 5.8 km/h 87% 0.0 mm
06:54 21 °C 18.8 °C 1013.9 hPa NNO 3.2 km/h 6.4 km/h 87% 0.0 mm
06:59 21 °C 18.9 °C 1013.9 hPa NNO 3.2 km/h 7.4 km/h 87.5% 0.0 mm
07:04 21.1 °C 19.1 °C 1013.9 hPa NNO 3.8 km/h 5.8 km/h 88% 0.0 mm
07:09 21.2 °C 19.1 °C 1014.1 hPa NNO 3.9 km/h 7.4 km/h 88% 0.0 mm
07:14 21.2 °C 19.1 °C 1014.1 hPa NO 3.3 km/h 8.4 km/h 88% 0.0 mm
07:19 21.3 °C 19.2 °C 1014.1 hPa ONO 3.2 km/h 7.4 km/h 88% 0.0 mm
07:24 21.3 °C 19.2 °C 1014.3 hPa ONO 3.7 km/h 5.6 km/h 88% 0.0 mm
07:29 21.3 °C 19.2 °C 1014.3 hPa ONO 3.9 km/h 7.4 km/h 88.1% 0.0 mm
07:34 21.3 °C 19.3 °C 1014.3 hPa ONO 3.4 km/h 5 km/h 88% 0.0 mm
07:39 21.4 °C 19.3 °C 1014.4 hPa OSO 3.2 km/h 5.8 km/h 88.1% 0.0 mm
07:44 21.4 °C 19.4 °C 1014.4 hPa SO 2.5 km/h 7.4 km/h 88.1% 0.0 mm
07:49 21.5 °C 19.5 °C 1014.4 hPa SSO 2.3 km/h 6.4 km/h 88% 0.0 mm
07:54 21.6 °C 19.5 °C 1014.6 hPa SE 2.8 km/h 7.4 km/h 88% 0.0 mm
07:59 21.6 °C 19.5 °C 1014.6 hPa SE 2.9 km/h 7.4 km/h 88% 0.0 mm
08:04 21.7 °C 19.5 °C 1014.6 hPa SSE 2.9 km/h 6.9 km/h 88% 0.0 mm
08:09 21.7 °C 19.4 °C 1014.8 hPa SSO 2.9 km/h 7.4 km/h 87% 0.0 mm
08:14 21.7 °C 19.6 °C 1014.8 hPa SO 3.2 km/h 7.4 km/h 87.6% 0.0 mm
08:19 21.8 °C 19.8 °C 1014.8 hPa Oeste 3.2 km/h 7.4 km/h 88% 0.0 mm
08:24 22 °C 19.8 °C 1014.9 hPa SSO 3.2 km/h 9.3 km/h 87.3% 0.0 mm
08:29 22.1 °C 19.8 °C 1014.9 hPa SO 3.2 km/h 7.4 km/h 87% 0.0 mm
08:34 22.2 °C 19.8 °C 1014.9 hPa SSO 4.4 km/h 8.4 km/h 86.3% 0.0 mm
08:39 22.2 °C 19.7 °C 1015.1 hPa SSE 4.7 km/h 10 km/h 86% 0.0 mm
08:44 22.2 °C 19.6 °C 1015.1 hPa SSE 4.9 km/h 11.1 km/h 85.2% 0.0 mm
08:49 22.2 °C 19.5 °C 1015.1 hPa SSE 5 km/h 11.1 km/h 84.5% 0.0 mm
08:54 22.3 °C 19.5 °C 1015.2 hPa SSE 7.7 km/h 11.1 km/h 84% 0.0 mm
Murcia-Puente Tocinos, Espa?a
Compliments of Weather Underground - 2 mb

La estación de MeteoMurcia.com, publica sus datos en los siguientes proyectos:

Weather Underground PWS IMURCIAP2 Meteoclimatic www.awekas.at

W3Counter
Web Analytics